createdAt,value
2018-05-18T00:01:57.822Z,90.80
2018-05-18T00:04:24.319Z,90.50
2018-05-18T00:06:50.507Z,90.50
2018-05-18T00:09:19.604Z,90.40
2018-05-18T00:11:45.775Z,90.30
2018-05-18T00:14:12.505Z,90.10
2018-05-18T00:16:38.665Z,90.10
2018-05-18T00:19:04.964Z,90.20
2018-05-18T00:21:31.245Z,90.40
2018-05-18T00:23:57.632Z,90.50
2018-05-18T00:26:23.792Z,90.50
2018-05-18T00:28:50.034Z,90.40
2018-05-18T00:31:16.337Z,90.40
2018-05-18T00:33:42.676Z,90.70
2018-05-18T00:36:08.933Z,90.80
2018-05-18T00:38:35.244Z,91.00
2018-05-18T00:41:01.464Z,91.00
2018-05-18T00:43:27.651Z,91.00
2018-05-18T00:45:57.720Z,91.00
2018-05-18T00:48:23.837Z,91.10
2018-05-18T00:50:49.941Z,91.10
2018-05-18T00:53:16.095Z,90.80
2018-05-18T00:55:42.446Z,90.70
2018-05-18T00:58:08.679Z,90.50
2018-05-18T01:00:34.783Z,90.90
2018-05-18T01:03:00.957Z,90.60
2018-05-18T01:05:27.054Z,90.80
2018-05-18T01:07:53.775Z,90.60
2018-05-18T01:10:20.113Z,90.60
2018-05-18T01:12:46.248Z,90.60
2018-05-18T01:15:12.429Z,90.50
2018-05-18T01:17:41.717Z,89.80
2018-05-18T01:20:07.867Z,89.80
2018-05-18T01:22:34.110Z,89.10
2018-05-18T01:25:00.469Z,88.80
2018-05-18T01:27:27.378Z,88.70
2018-05-18T01:29:53.781Z,88.50
2018-05-18T01:32:19.930Z,88.70
2018-05-18T01:34:46.076Z,88.70
2018-05-18T01:37:12.506Z,88.70
2018-05-18T01:39:39.672Z,89.20
2018-05-18T01:42:05.841Z,89.40
2018-05-18T01:44:32.193Z,89.60
2018-05-18T01:47:01.414Z,89.50
2018-05-18T01:49:28.357Z,89.60
2018-05-18T01:51:54.484Z,89.50
2018-05-18T01:54:20.693Z,89.50
2018-05-18T01:56:46.879Z,89.20
2018-05-18T01:59:17.009Z,88.80
2018-05-18T02:01:43.176Z,88.60
2018-05-18T02:04:09.721Z,88.60
2018-05-18T02:06:41.062Z,88.80
2018-05-18T02:09:07.200Z,88.80
2018-05-18T02:11:34.085Z,88.80
2018-05-18T02:14:00.247Z,89.40
2018-05-18T02:16:26.363Z,89.20
2018-05-18T02:18:52.573Z,88.80
2018-05-18T02:21:18.719Z,88.20
2018-05-18T02:23:45.632Z,87.70
2018-05-18T02:26:11.788Z,87.60
2018-05-18T02:28:37.938Z,87.40
2018-05-18T02:31:04.077Z,87.40
2018-05-18T02:33:30.189Z,87.80
2018-05-18T02:35:56.581Z,87.90
2018-05-18T02:38:22.728Z,88.20
2018-05-18T02:40:49.249Z,88.90
2018-05-18T02:43:15.389Z,89.20
2018-05-18T02:45:41.616Z,90.00
2018-05-18T02:48:07.877Z,90.30
2018-05-18T02:50:34.933Z,90.90
2018-05-18T02:53:02.300Z,91.30
2018-05-18T02:55:28.551Z,91.30
2018-05-18T02:57:54.665Z,91.10
2018-05-18T03:00:20.863Z,91.00
2018-05-18T03:02:47.732Z,91.30
2018-05-18T03:05:13.912Z,91.30
2018-05-18T03:07:40.410Z,91.40
2018-05-18T03:10:06.629Z,91.80
2018-05-18T03:12:32.887Z,91.80
2018-05-18T03:14:59.033Z,91.90
2018-05-18T03:17:25.265Z,92.10
2018-05-18T03:19:52.215Z,92.70
2018-05-18T03:22:19.136Z,92.90
2018-05-18T03:24:45.278Z,92.90
2018-05-18T03:27:12.478Z,92.70
2018-05-18T03:29:38.638Z,92.60
2018-05-18T03:32:04.743Z,93.00
2018-05-18T03:34:31.295Z,92.90
2018-05-18T03:36:57.429Z,93.00
2018-05-18T03:39:24.022Z,93.00
2018-05-18T03:41:50.186Z,93.00
2018-05-18T03:44:16.342Z,93.30
2018-05-18T03:46:42.486Z,93.40
2018-05-18T03:49:08.729Z,93.50
2018-05-18T03:51:34.787Z,93.50
2018-05-18T03:54:00.989Z,93.20
2018-05-18T03:56:27.116Z,92.80
2018-05-18T03:58:53.379Z,92.60
2018-05-18T04:01:31.847Z,92.30
2018-05-18T04:04:10.725Z,92.20
2018-05-18T04:06:49.948Z,91.60
2018-05-18T04:09:16.131Z,91.60
2018-05-18T04:11:42.269Z,90.90
2018-05-18T04:14:08.421Z,90.70
2018-05-18T04:16:34.593Z,90.80
2018-05-18T04:19:00.745Z,90.90
2018-05-18T04:21:27.458Z,90.60
2018-05-18T04:23:53.639Z,90.60
2018-05-18T04:26:19.741Z,90.80
2018-05-18T04:28:45.859Z,90.70
2018-05-18T04:31:11.967Z,90.70
2018-05-18T04:33:38.499Z,90.90
2018-05-18T04:36:04.960Z,90.70
2018-05-18T04:38:31.075Z,90.60
2018-05-18T04:40:57.202Z,90.50
2018-05-18T04:43:23.399Z,89.80
2018-05-18T04:45:49.486Z,89.80
2018-05-18T04:48:15.649Z,89.60
2018-05-18T04:50:41.814Z,90.10
2018-05-18T04:53:14.622Z,90.50
2018-05-18T04:55:40.817Z,91.00
2018-05-18T04:58:07.248Z,91.60
2018-05-18T05:00:33.407Z,91.40
2018-05-18T05:02:59.536Z,91.40
2018-05-18T05:05:25.748Z,91.60
2018-05-18T05:07:51.982Z,91.50
2018-05-18T05:10:18.225Z,91.80
2018-05-18T05:12:44.444Z,91.70
2018-05-18T05:15:11.141Z,91.40
2018-05-18T05:17:37.207Z,91.40
2018-05-18T05:20:03.368Z,91.30
2018-05-18T05:22:29.659Z,91.30
2018-05-18T05:24:56.205Z,90.90
2018-05-18T05:27:23.222Z,91.30
2018-05-18T05:29:49.404Z,91.30
2018-05-18T05:32:15.562Z,91.30
2018-05-18T05:34:41.750Z,91.20
2018-05-18T05:37:07.975Z,91.20
2018-05-18T05:39:34.207Z,91.10
2018-05-18T05:42:00.391Z,90.90
2018-05-18T05:44:26.577Z,90.80
2018-05-18T05:46:52.817Z,90.60
2018-05-18T05:49:18.991Z,90.80
2018-05-18T05:51:48.914Z,91.00
2018-05-18T05:54:15.853Z,90.80
2018-05-18T05:56:42.174Z,90.80
2018-05-18T05:59:09.394Z,90.70
2018-05-18T06:01:35.697Z,90.60
2018-05-18T06:04:02.016Z,90.10
2018-05-18T06:06:28.235Z,89.50
2018-05-18T06:08:54.445Z,89.60
2018-05-18T06:11:20.591Z,89.50
2018-05-18T06:13:48.400Z,89.30
2018-05-18T06:16:14.919Z,89.60
2018-05-18T06:18:41.256Z,89.50
2018-05-18T06:21:07.389Z,88.90
2018-05-18T06:26:23.611Z,89.20
2018-05-18T06:28:50.104Z,90.00
2018-05-18T06:31:16.175Z,90.00
2018-05-18T06:33:42.654Z,90.60
2018-05-18T06:36:08.809Z,90.70
2018-05-18T06:38:34.979Z,90.50
2018-05-18T06:41:01.142Z,90.20
2018-05-18T06:43:30.822Z,90.70
2018-05-18T06:45:58.948Z,91.50
2018-05-18T06:48:25.145Z,91.50
2018-05-18T06:50:51.297Z,91.30
2018-05-18T06:53:17.511Z,90.50
2018-05-18T06:55:43.833Z,90.10
2018-05-18T06:58:09.954Z,90.30
2018-05-18T07:00:36.080Z,90.40
2018-05-18T07:03:02.293Z,91.00
2018-05-18T07:05:28.576Z,91.30
2018-05-18T07:07:54.735Z,90.80
2018-05-18T07:10:20.844Z,90.60
2018-05-18T07:12:47.090Z,90.50
2018-05-18T07:15:14.030Z,90.30
2018-05-18T07:17:40.180Z,90.30
2018-05-18T07:20:06.389Z,90.00
2018-05-18T07:22:32.511Z,88.80
2018-05-18T07:24:59.570Z,87.60
2018-05-18T07:27:25.785Z,87.60
2018-05-18T07:29:51.897Z,87.30
2018-05-18T07:32:18.484Z,86.90
2018-05-18T07:34:44.717Z,88.30
2018-05-18T07:37:10.931Z,87.50
2018-05-18T07:39:37.167Z,87.10
2018-05-18T07:42:03.318Z,86.20
2018-05-18T07:44:29.509Z,85.10
2018-05-18T07:46:55.672Z,83.90
2018-05-18T07:49:21.898Z,83.20
2018-05-18T07:51:48.379Z,83.40
2018-05-18T07:54:14.667Z,83.60
2018-05-18T07:56:41.278Z,84.00
2018-05-18T07:59:07.467Z,84.20
2018-05-18T08:01:34.017Z,83.90
2018-05-18T08:04:00.150Z,83.50
2018-05-18T08:06:26.305Z,83.00
2018-05-18T08:08:52.618Z,82.00
2018-05-18T08:11:19.000Z,81.30
2018-05-18T08:13:45.289Z,80.90
2018-05-18T08:16:11.649Z,80.90
2018-05-18T08:18:37.819Z,82.60
2018-05-18T08:21:04.189Z,83.40
2018-05-18T08:23:39.413Z,82.30
2018-05-18T08:26:05.777Z,81.80
2018-05-18T08:28:44.165Z,80.70
2018-05-18T08:31:10.575Z,79.80
2018-05-18T08:33:37.435Z,81.00
2018-05-18T08:36:03.729Z,81.10
2018-05-18T08:38:30.278Z,81.30
2018-05-18T08:43:28.888Z,81.90
2018-05-18T08:45:55.013Z,81.20
2018-05-18T08:48:21.197Z,81.70
2018-05-18T08:50:50.123Z,80.30
2018-05-18T08:53:16.244Z,80.30
2018-05-18T08:55:42.759Z,79.80
2018-05-18T08:58:08.973Z,80.10
2018-05-18T09:00:35.967Z,80.10
2018-05-18T09:03:02.479Z,80.10
2018-05-18T09:05:29.908Z,79.30
2018-05-18T09:07:56.105Z,79.60
2018-05-18T09:10:22.774Z,79.20
2018-05-18T09:12:49.654Z,79.70
2018-05-18T09:15:19.040Z,79.60
2018-05-18T09:17:45.299Z,79.50
2018-05-18T09:20:11.507Z,79.00
2018-05-18T09:22:37.640Z,78.40
2018-05-18T09:25:03.770Z,79.00
2018-05-18T09:27:30.667Z,79.30
2018-05-18T09:29:57.554Z,77.90
2018-05-18T09:32:23.700Z,77.90
2018-05-18T09:34:50.011Z,77.60
2018-05-18T09:37:16.190Z,74.20
2018-05-18T09:39:42.471Z,75.00
2018-05-18T09:42:08.748Z,75.10
2018-05-18T09:44:35.136Z,73.80
2018-05-18T09:47:01.439Z,74.20
2018-05-18T09:49:27.618Z,74.20
2018-05-18T09:51:54.512Z,72.90
2018-05-18T09:54:20.815Z,72.90
2018-05-18T09:56:47.062Z,73.10
2018-05-18T09:59:13.273Z,72.30
2018-05-18T10:01:39.700Z,72.70
2018-05-18T10:04:06.588Z,72.60
2018-05-18T10:06:32.806Z,72.60
2018-05-18T10:08:58.927Z,73.40
2018-05-18T10:11:25.153Z,74.40
2018-05-18T10:13:51.280Z,75.20
2018-05-18T10:16:17.509Z,73.80
2018-05-18T10:18:44.561Z,72.60
2018-05-18T10:21:10.911Z,71.30
2018-05-18T10:23:37.123Z,70.50
2018-05-18T10:26:03.352Z,70.30
2018-05-18T10:28:29.583Z,69.60
2018-05-18T10:30:55.933Z,69.20
2018-05-18T10:33:22.127Z,68.70
2018-05-18T10:35:48.351Z,67.20
2018-05-18T10:38:14.545Z,67.90
2018-05-18T10:40:40.813Z,67.30
2018-05-18T10:43:06.984Z,68.30
2018-05-18T10:45:33.169Z,68.60
2018-05-18T10:47:59.404Z,66.00
2018-05-18T10:50:25.540Z,65.80
2018-05-18T10:52:51.676Z,66.10
2018-05-18T10:55:17.941Z,66.40
2018-05-18T10:57:44.208Z,67.00
2018-05-18T11:00:10.438Z,67.10
2018-05-18T11:02:36.781Z,67.20
2018-05-18T11:05:02.856Z,65.60
2018-05-18T11:07:29.122Z,64.70
2018-05-18T11:09:58.784Z,65.80
2018-05-18T11:12:24.945Z,66.50
2018-05-18T11:14:51.179Z,65.80
2018-05-18T11:17:17.608Z,65.20
2018-05-18T11:19:45.930Z,65.90
2018-05-18T11:22:12.117Z,65.10
2018-05-18T11:24:38.305Z,63.80
2018-05-18T11:27:04.445Z,62.00
2018-05-18T11:29:31.274Z,62.80
2018-05-18T11:32:00.505Z,61.40
2018-05-18T11:34:28.277Z,59.30
2018-05-18T11:36:54.808Z,61.20
2018-05-18T11:39:20.941Z,62.60
2018-05-18T11:41:47.353Z,63.00
2018-05-18T11:44:14.209Z,63.40
2018-05-18T11:46:41.762Z,64.60
2018-05-18T11:49:07.954Z,62.10
2018-05-18T11:51:34.421Z,62.00
2018-05-18T11:54:00.850Z,60.00
2018-05-18T11:56:26.985Z,60.40
2018-05-18T11:58:53.118Z,60.30
2018-05-18T12:01:19.298Z,60.60
2018-05-18T12:03:45.532Z,59.80
2018-05-18T12:06:12.486Z,60.70
2018-05-18T12:08:38.728Z,60.70
2018-05-18T12:11:04.880Z,62.20
2018-05-18T12:13:31.088Z,60.10
2018-05-18T12:15:57.281Z,60.90
2018-05-18T12:18:23.464Z,60.00
2018-05-18T12:20:56.158Z,59.50
2018-05-18T12:23:23.143Z,60.50
2018-05-18T12:25:49.304Z,60.40
2018-05-18T12:28:15.443Z,58.90
2018-05-18T12:30:41.611Z,57.60
2018-05-18T12:33:08.041Z,57.50
2018-05-18T12:35:34.567Z,57.80
2018-05-18T12:38:01.479Z,57.00
2018-05-18T12:40:27.638Z,57.00
2018-05-18T12:42:58.876Z,56.50
2018-05-18T12:45:25.083Z,56.50
2018-05-18T12:47:51.255Z,57.00
2018-05-18T12:50:17.507Z,56.70
2018-05-18T12:52:43.765Z,57.20
2018-05-18T12:55:09.981Z,57.20
2018-05-18T12:57:38.759Z,57.90
2018-05-18T13:00:04.921Z,54.60
2018-05-18T13:02:31.830Z,54.90
2018-05-18T13:04:57.984Z,54.90
2018-05-18T13:07:24.467Z,55.50
2018-05-18T13:09:50.641Z,55.40
2018-05-18T13:12:16.738Z,54.60
2018-05-18T13:14:42.900Z,55.20
2018-05-18T13:17:09.239Z,53.90
2018-05-18T13:19:35.363Z,54.80
2018-05-18T13:22:02.185Z,54.40
2018-05-18T13:24:28.311Z,54.00
2018-05-18T13:26:58.618Z,53.50
2018-05-18T13:29:24.866Z,53.50
2018-05-18T13:31:51.886Z,53.70
2018-05-18T13:34:18.303Z,53.70
2018-05-18T13:36:44.501Z,54.40
2018-05-18T13:39:10.921Z,54.20
2018-05-18T13:41:37.015Z,54.10
2018-05-18T13:44:03.231Z,54.40
2018-05-18T13:46:29.874Z,53.90
2018-05-18T13:48:56.176Z,52.30
2018-05-18T13:51:22.425Z,51.30
2018-05-18T13:53:48.548Z,50.50
2018-05-18T13:56:14.714Z,48.80
2018-05-18T13:58:41.248Z,50.50
2018-05-18T14:01:07.606Z,50.70
2018-05-18T14:03:34.281Z,50.80
2018-05-18T14:06:00.471Z,50.90
2018-05-18T14:08:27.026Z,51.20
2018-05-18T14:10:53.205Z,50.80
2018-05-18T14:13:19.481Z,48.20
2018-05-18T14:15:45.735Z,47.50
2018-05-18T14:18:11.952Z,45.90
2018-05-18T14:20:38.101Z,45.80
2018-05-18T14:23:04.206Z,45.90
2018-05-18T14:25:30.385Z,45.40
2018-05-18T14:27:56.575Z,45.90
2018-05-18T14:30:22.830Z,45.00
2018-05-18T14:32:48.983Z,46.70
2018-05-18T14:35:15.103Z,45.70
2018-05-18T14:37:41.244Z,44.90
2018-05-18T14:40:07.349Z,45.10
2018-05-18T14:42:33.595Z,45.40
2018-05-18T14:44:59.777Z,44.90
2018-05-18T14:47:26.686Z,46.20
2018-05-18T14:49:53.237Z,45.60
2018-05-18T14:52:19.437Z,46.80
2018-05-18T14:54:45.792Z,46.30
2018-05-18T14:57:12.229Z,48.00
2018-05-18T14:59:38.353Z,47.60
2018-05-18T15:02:04.525Z,46.70
2018-05-18T15:04:30.705Z,47.60
2018-05-18T15:06:56.880Z,47.80
2018-05-18T15:09:23.037Z,47.70
2018-05-18T15:11:49.145Z,46.60
2018-05-18T15:14:15.318Z,46.20
2018-05-18T15:16:41.526Z,46.80
2018-05-18T15:19:08.000Z,47.60
2018-05-18T15:21:34.961Z,47.30
2018-05-18T15:24:01.204Z,47.20
2018-05-18T15:26:27.821Z,47.90
2018-05-18T15:28:53.916Z,47.90
2018-05-18T15:31:20.245Z,48.30
2018-05-18T15:33:50.153Z,48.70
2018-05-18T15:36:18.179Z,47.00
2018-05-18T15:38:45.706Z,47.80
2018-05-18T15:41:11.812Z,46.90
2018-05-18T15:43:38.126Z,46.80
2018-05-18T15:46:04.247Z,45.20
2018-05-18T15:48:30.409Z,45.00
2018-05-18T15:50:56.622Z,45.60
2018-05-18T15:53:22.768Z,46.20
2018-05-18T15:55:48.925Z,46.50
2018-05-18T15:58:15.800Z,47.00
2018-05-18T16:00:43.487Z,47.60
2018-05-18T16:03:09.620Z,48.00
2018-05-18T16:05:35.760Z,47.40
2018-05-18T16:08:01.861Z,47.50
2018-05-18T16:10:28.128Z,47.80
2018-05-18T16:12:54.341Z,48.10
2018-05-18T16:15:20.422Z,48.70
2018-05-18T16:17:47.502Z,47.70
2018-05-18T16:20:13.699Z,47.70
2018-05-18T16:22:39.791Z,48.10
2018-05-18T16:25:05.916Z,46.90
2018-05-18T16:27:32.923Z,46.60
2018-05-18T16:30:01.086Z,45.80
2018-05-18T16:32:29.605Z,46.00
2018-05-18T16:34:56.548Z,47.10
2018-05-18T16:37:22.720Z,47.00
2018-05-18T16:39:49.629Z,47.40
2018-05-18T16:42:15.832Z,47.30
2018-05-18T16:44:41.979Z,47.40
2018-05-18T16:47:08.241Z,47.20
2018-05-18T16:49:34.333Z,47.80
2018-05-18T16:52:00.421Z,47.90
2018-05-18T16:54:26.663Z,48.30
2018-05-18T16:56:53.134Z,48.30
2018-05-18T16:59:19.237Z,50.20
2018-05-18T17:01:45.408Z,51.60
2018-05-18T17:04:11.553Z,52.50
2018-05-18T17:06:38.021Z,52.80
2018-05-18T17:09:04.436Z,53.10
2018-05-18T17:11:30.535Z,53.10
2018-05-18T17:13:57.531Z,54.10
2018-05-18T17:16:23.828Z,54.10
2018-05-18T17:18:49.976Z,54.40
2018-05-18T17:21:16.890Z,55.40
2018-05-18T17:23:43.313Z,55.40
2018-05-18T17:26:09.596Z,55.80
2018-05-18T17:28:35.737Z,56.20
2018-05-18T17:31:01.943Z,57.00
2018-05-18T17:33:28.384Z,57.60
2018-05-18T17:35:54.676Z,58.10
2018-05-18T17:38:21.208Z,58.50
2018-05-18T17:40:47.512Z,58.90
2018-05-18T17:43:13.645Z,59.00
2018-05-18T17:45:39.922Z,59.50
2018-05-18T17:48:06.421Z,60.10
2018-05-18T17:50:32.810Z,60.40
2018-05-18T17:52:58.978Z,60.00
2018-05-18T17:55:25.112Z,60.10
2018-05-18T17:57:51.640Z,60.70
2018-05-18T18:00:17.818Z,60.70
2018-05-18T18:02:44.206Z,60.30
2018-05-18T18:05:10.373Z,60.40
2018-05-18T18:07:36.535Z,60.30
2018-05-18T18:10:02.711Z,60.70
2018-05-18T18:12:28.940Z,61.30
2018-05-18T18:14:55.071Z,61.80
2018-05-18T18:17:21.273Z,62.50
2018-05-18T18:19:48.112Z,63.00
2018-05-18T18:22:14.839Z,63.30
2018-05-18T18:24:41.422Z,63.30
2018-05-18T18:27:08.071Z,63.30
2018-05-18T18:29:34.411Z,63.30
2018-05-18T18:32:00.588Z,63.20
2018-05-18T18:34:26.735Z,63.20
2018-05-18T18:36:53.025Z,62.90
2018-05-18T18:39:19.194Z,64.00
2018-05-18T18:41:45.906Z,62.90
2018-05-18T18:44:12.111Z,63.90
2018-05-18T18:46:38.381Z,63.30
2018-05-18T18:49:04.590Z,63.50
2018-05-18T18:51:31.153Z,63.40
2018-05-18T18:53:57.297Z,63.50
2018-05-18T18:56:23.504Z,63.50
2018-05-18T18:58:50.017Z,64.00
2018-05-18T19:01:16.132Z,64.10
2018-05-18T19:03:42.289Z,64.30
2018-05-18T19:06:08.600Z,64.30
2018-05-18T19:08:34.851Z,64.50
2018-05-18T19:11:00.984Z,64.60
2018-05-18T19:13:27.287Z,64.60
2018-05-18T19:15:53.795Z,65.00
2018-05-18T19:18:20.038Z,65.10
2018-05-18T19:20:46.195Z,65.10
2018-05-18T19:23:12.422Z,65.20
2018-05-18T19:25:38.648Z,65.10
2018-05-18T19:28:04.819Z,65.30
2018-05-18T19:30:31.149Z,65.40
2018-05-18T19:32:57.773Z,65.50
2018-05-18T19:35:24.799Z,65.80
2018-05-18T19:37:51.030Z,65.80
2018-05-18T19:40:17.957Z,66.20
2018-05-18T19:42:44.170Z,66.20
2018-05-18T19:45:10.357Z,66.40
2018-05-18T19:47:36.553Z,66.50
2018-05-18T19:50:02.801Z,66.40
2018-05-18T19:52:28.835Z,66.40
2018-05-18T19:54:54.960Z,66.40
2018-05-18T19:57:21.081Z,66.80
2018-05-18T19:59:47.497Z,67.20
2018-05-18T20:02:13.748Z,67.90
2018-05-18T20:04:40.152Z,68.10
2018-05-18T20:07:06.250Z,67.90
2018-05-18T20:09:32.674Z,68.70
2018-05-18T20:11:59.080Z,68.80
2018-05-18T20:14:25.130Z,68.90
2018-05-18T20:16:51.421Z,69.20
2018-05-18T20:19:17.554Z,68.80
2018-05-18T20:21:44.494Z,68.50
2018-05-18T20:24:10.669Z,69.20
2018-05-18T20:26:36.843Z,68.00
2018-05-18T20:29:02.990Z,68.20
2018-05-18T20:31:29.176Z,68.50
2018-05-18T20:33:55.445Z,68.80
2018-05-18T20:36:21.561Z,69.30
2018-05-18T20:38:48.283Z,69.80
2018-05-18T20:41:14.508Z,69.80
2018-05-18T20:43:41.030Z,70.00
2018-05-18T20:46:07.191Z,70.40
2018-05-18T20:48:33.369Z,71.00
2018-05-18T20:50:59.648Z,71.10
2018-05-18T20:53:25.775Z,71.10
2018-05-18T20:55:52.047Z,71.40
2018-05-18T20:58:18.449Z,71.20
2018-05-18T21:00:44.658Z,71.30
2018-05-18T21:03:11.300Z,71.40
2018-05-18T21:05:37.527Z,71.40
2018-05-18T21:08:03.652Z,71.50
2018-05-18T21:10:29.984Z,71.50
2018-05-18T21:12:56.134Z,71.50
2018-05-18T21:15:22.269Z,71.70
2018-05-18T21:17:48.517Z,71.80
2018-05-18T21:20:15.490Z,72.00
2018-05-18T21:22:41.656Z,72.00
2018-05-18T21:25:07.861Z,72.40
2018-05-18T21:27:34.019Z,72.50
2018-05-18T21:30:00.187Z,72.80
2018-05-18T21:32:26.337Z,73.20
2018-05-18T21:34:52.638Z,73.40
2018-05-18T21:37:18.777Z,73.50
2018-05-18T21:39:45.126Z,73.60
2018-05-18T21:42:11.251Z,73.80
2018-05-18T21:44:37.480Z,73.90
2018-05-18T21:47:03.660Z,73.60
2018-05-18T21:49:30.406Z,73.20
2018-05-18T21:51:57.362Z,73.30
2018-05-18T21:54:24.227Z,73.20
2018-05-18T21:56:50.666Z,73.10
2018-05-18T21:59:16.787Z,73.10
2018-05-18T22:01:42.929Z,73.50
2018-05-18T22:04:09.043Z,73.60
2018-05-18T22:06:35.234Z,73.30
2018-05-18T22:09:01.289Z,73.10
2018-05-18T22:11:27.451Z,72.70
2018-05-18T22:13:53.696Z,73.10
2018-05-18T22:16:19.850Z,75.00
2018-05-18T22:18:45.975Z,75.70
2018-05-18T22:21:12.187Z,76.30
2018-05-18T22:23:38.221Z,76.00
2018-05-18T22:26:04.401Z,75.50
2018-05-18T22:28:30.483Z,74.90
2018-05-18T22:30:56.593Z,74.80
2018-05-18T22:33:23.441Z,74.80
2018-05-18T22:35:49.500Z,75.50
2018-05-18T22:38:15.614Z,75.30
2018-05-18T22:40:41.743Z,75.60
2018-05-18T22:43:07.874Z,75.50
2018-05-18T22:45:34.016Z,75.80
2018-05-18T22:48:00.123Z,76.60
2018-05-18T22:50:26.248Z,76.90
2018-05-18T22:52:52.377Z,77.30
2018-05-18T22:55:18.595Z,77.90
2018-05-18T22:57:44.726Z,77.90
2018-05-18T23:00:13.598Z,78.30
2018-05-18T23:02:39.768Z,78.50
2018-05-18T23:05:05.843Z,78.10
2018-05-18T23:07:31.959Z,77.90
2018-05-18T23:09:58.091Z,78.20
2018-05-18T23:12:24.172Z,78.50
2018-05-18T23:14:50.291Z,78.90
2018-05-18T23:17:16.388Z,79.40
2018-05-18T23:19:42.907Z,80.30
2018-05-18T23:22:11.019Z,79.70
2018-05-18T23:24:37.145Z,79.30
2018-05-18T23:27:03.311Z,78.90
2018-05-18T23:29:29.550Z,78.80
2018-05-18T23:31:55.898Z,78.30
2018-05-18T23:34:21.938Z,78.20
2018-05-18T23:36:48.064Z,78.20
2018-05-18T23:39:14.248Z,78.40
2018-05-18T23:41:40.345Z,78.50
2018-05-18T23:44:06.437Z,78.50
2018-05-18T23:46:32.543Z,78.10
2018-05-18T23:48:58.769Z,77.70
2018-05-18T23:51:24.909Z,78.10
2018-05-18T23:53:50.988Z,79.40
2018-05-18T23:56:17.847Z,81.80
2018-05-18T23:58:43.948Z,81.70
